createdAt,value
2022-09-07T00:01:12.588Z,4.10
2022-09-07T00:03:40.721Z,4.50
2022-09-07T00:06:11.294Z,5.00
2022-09-07T00:08:41.352Z,4.60
2022-09-07T00:11:16.411Z,4.70
2022-09-07T00:13:46.642Z,4.40
2022-09-07T00:16:21.329Z,4.70
2022-09-07T00:18:50.061Z,4.80
2022-09-07T00:21:18.910Z,4.70
2022-09-07T00:23:48.799Z,4.60
2022-09-07T00:26:23.835Z,5.20
2022-09-07T00:28:53.299Z,5.10
2022-09-07T00:31:23.611Z,5.10
2022-09-07T00:33:53.468Z,5.10
2022-09-07T00:36:23.086Z,4.70
2022-09-07T00:38:52.109Z,4.80
2022-09-07T00:41:21.453Z,4.60
2022-09-07T00:43:56.085Z,4.70
2022-09-07T00:46:29.189Z,5.50
2022-09-07T00:49:18.939Z,4.90
2022-09-07T00:51:54.703Z,5.10
2022-09-07T00:54:28.791Z,4.90
2022-09-07T00:56:57.468Z,4.90
2022-09-07T00:59:32.700Z,4.70
2022-09-07T01:02:02.478Z,5.20
2022-09-07T01:04:32.447Z,5.50
2022-09-07T01:07:02.962Z,5.50
2022-09-07T01:09:32.607Z,5.20
2022-09-07T01:12:02.434Z,5.40
2022-09-07T01:14:40.348Z,5.80
2022-09-07T01:17:42.172Z,5.20
2022-09-07T01:20:32.253Z,5.30
2022-09-07T01:23:17.241Z,5.30
2022-09-07T01:25:51.761Z,5.50
2022-09-07T01:28:27.608Z,5.70
2022-09-07T01:31:01.772Z,6.00
2022-09-07T01:33:41.405Z,6.20
2022-09-07T01:36:28.022Z,6.60
2022-09-07T01:39:01.965Z,6.80
2022-09-07T01:41:40.600Z,6.60
2022-09-07T01:44:18.445Z,6.50
2022-09-07T01:46:58.522Z,8.10
2022-09-07T01:49:34.337Z,7.50
2022-09-07T01:52:09.454Z,7.80
2022-09-07T01:55:08.538Z,7.90
2022-09-07T01:58:02.139Z,7.90
2022-09-07T02:00:32.927Z,7.90
2022-09-07T02:03:20.702Z,8.50
2022-09-07T02:05:58.824Z,8.40
2022-09-07T02:08:56.653Z,9.60
2022-09-07T02:11:40.134Z,9.70
2022-09-07T02:14:16.534Z,9.30
2022-09-07T02:17:00.738Z,8.90
2022-09-07T02:19:35.733Z,9.60
2022-09-07T02:22:09.771Z,9.30
2022-09-07T02:24:42.081Z,9.60
2022-09-07T02:27:16.610Z,10.00
2022-09-07T02:29:44.928Z,10.60
2022-09-07T02:32:13.007Z,11.10
2022-09-07T02:34:41.226Z,10.70
2022-09-07T02:37:10.906Z,11.10
2022-09-07T02:39:39.867Z,9.90
2022-09-07T02:42:09.367Z,10.70
2022-09-07T02:44:41.481Z,10.50
2022-09-07T02:47:43.455Z,10.30
2022-09-07T02:50:20.952Z,11.10
2022-09-07T02:53:16.118Z,10.20
2022-09-07T02:56:02.608Z,10.70
2022-09-07T02:58:53.267Z,9.90
2022-09-07T03:01:35.466Z,9.50
2022-09-07T03:04:12.041Z,9.70
2022-09-07T03:06:45.506Z,10.30
2022-09-07T03:09:20.021Z,9.60
2022-09-07T03:11:50.137Z,10.00
2022-09-07T03:14:20.416Z,10.40
2022-09-07T03:16:50.755Z,10.10
2022-09-07T03:19:18.984Z,10.50
2022-09-07T03:21:47.508Z,10.50
2022-09-07T03:24:15.856Z,11.80
2022-09-07T03:26:48.723Z,12.00
2022-09-07T03:29:16.915Z,12.10
2022-09-07T03:31:45.738Z,12.10
2022-09-07T03:34:14.110Z,12.50
2022-09-07T03:36:42.933Z,12.50
2022-09-07T03:39:12.680Z,13.00
2022-09-07T03:41:41.072Z,12.10
2022-09-07T03:44:09.479Z,12.20
2022-09-07T03:46:37.655Z,12.30
2022-09-07T03:49:06.345Z,12.40
2022-09-07T03:51:34.742Z,12.10
2022-09-07T03:54:02.794Z,13.10
2022-09-07T03:56:30.883Z,13.10
2022-09-07T03:58:59.211Z,13.60
2022-09-07T04:01:28.482Z,12.70
2022-09-07T04:04:02.184Z,12.50
2022-09-07T04:06:32.089Z,13.10
2022-09-07T04:09:05.865Z,12.90
2022-09-07T04:11:34.867Z,12.90
2022-09-07T04:14:03.083Z,13.10
2022-09-07T04:16:31.899Z,13.00
2022-09-07T04:19:00.655Z,13.50
2022-09-07T04:21:30.826Z,12.40
2022-09-07T04:23:59.987Z,13.50
2022-09-07T04:26:31.007Z,13.90
2022-09-07T04:29:01.468Z,13.20
2022-09-07T04:31:30.752Z,13.90
2022-09-07T04:34:01.069Z,14.60
2022-09-07T04:36:29.371Z,12.70
2022-09-07T04:39:01.847Z,14.90
2022-09-07T04:41:32.250Z,14.30
2022-09-07T04:44:02.552Z,12.60
2022-09-07T04:46:37.292Z,14.30
2022-09-07T04:49:08.888Z,15.80
2022-09-07T04:51:39.073Z,19.60
2022-09-07T04:54:07.564Z,19.10
2022-09-07T04:56:36.195Z,17.50
2022-09-07T04:59:05.023Z,16.10
2022-09-07T05:01:33.486Z,14.90
2022-09-07T05:04:04.443Z,15.00
2022-09-07T05:06:32.819Z,14.50
2022-09-07T05:09:01.401Z,14.30
2022-09-07T05:11:30.238Z,14.50
2022-09-07T05:14:00.550Z,16.20
2022-09-07T05:16:30.449Z,17.80
2022-09-07T05:19:02.361Z,18.50
2022-09-07T05:21:33.433Z,20.90
2022-09-07T05:24:02.473Z,19.00
2022-09-07T05:26:33.185Z,17.20
2022-09-07T05:31:57.287Z,14.00
2022-09-07T05:36:57.386Z,14.20
2022-09-07T05:39:29.513Z,19.00
2022-09-07T05:41:57.737Z,19.10
2022-09-07T05:47:14.585Z,16.70
2022-09-07T05:49:43.130Z,18.20
2022-09-07T05:52:11.517Z,19.30
2022-09-07T05:54:40.423Z,18.00
2022-09-07T05:57:12.032Z,18.00
2022-09-07T05:59:40.671Z,18.40
2022-09-07T06:02:14.473Z,20.10
2022-09-07T06:04:43.422Z,20.20
2022-09-07T06:07:22.094Z,21.30
2022-09-07T06:12:39.816Z,19.40
2022-09-07T06:15:09.648Z,18.90
2022-09-07T06:17:37.844Z,21.90
2022-09-07T06:20:07.227Z,25.30
2022-09-07T06:22:36.937Z,22.80
2022-09-07T06:25:06.103Z,25.30
2022-09-07T06:27:35.014Z,22.40
2022-09-07T06:30:04.679Z,19.90
2022-09-07T06:35:09.674Z,17.30
2022-09-07T06:37:38.613Z,16.00
2022-09-07T06:40:08.735Z,14.00
2022-09-07T06:42:37.534Z,13.60
2022-09-07T06:45:06.900Z,12.00
2022-09-07T06:47:35.211Z,12.10
2022-09-07T06:50:03.686Z,12.40
2022-09-07T06:55:20.519Z,12.20
2022-09-07T06:57:53.132Z,14.50
2022-09-07T07:02:49.469Z,12.20
2022-09-07T07:05:17.837Z,12.00
2022-09-07T07:07:45.970Z,12.90
2022-09-07T07:10:14.377Z,14.50
2022-09-07T07:15:10.074Z,11.70
2022-09-07T07:17:38.770Z,11.30
2022-09-07T07:20:07.697Z,12.80
2022-09-07T07:22:46.591Z,13.60
2022-09-07T07:25:15.435Z,14.30
2022-09-07T07:27:46.110Z,12.90
2022-09-07T07:30:18.838Z,12.90
2022-09-07T07:32:48.244Z,12.60
2022-09-07T07:35:16.593Z,13.90
2022-09-07T07:37:44.830Z,14.50
2022-09-07T07:40:15.857Z,12.50
2022-09-07T07:42:45.650Z,14.20
2022-09-07T07:48:03.260Z,11.60
2022-09-07T07:50:32.658Z,12.40
2022-09-07T07:55:50.667Z,11.70
2022-09-07T07:58:19.870Z,12.50
2022-09-07T08:00:54.790Z,12.50
2022-09-07T08:03:25.801Z,10.60
2022-09-07T08:05:55.607Z,10.60
2022-09-07T08:08:24.306Z,11.20
2022-09-07T08:10:53.380Z,12.80
2022-09-07T08:13:21.758Z,11.20
2022-09-07T08:15:49.830Z,11.90
2022-09-07T08:18:18.729Z,10.90
2022-09-07T08:20:48.206Z,11.10
2022-09-07T08:23:16.736Z,11.40
2022-09-07T08:25:55.122Z,11.00
2022-09-07T08:28:26.496Z,11.80
2022-09-07T08:30:55.391Z,12.20
2022-09-07T08:33:24.001Z,12.60
2022-09-07T08:36:01.550Z,13.10
2022-09-07T08:38:32.348Z,13.20
2022-09-07T08:41:02.820Z,12.60
2022-09-07T08:43:55.079Z,13.20
2022-09-07T08:46:43.610Z,13.80
2022-09-07T08:49:34.235Z,15.20
2022-09-07T08:52:16.637Z,14.20
2022-09-07T08:55:00.579Z,14.70
2022-09-07T08:57:33.030Z,15.20
2022-09-07T09:02:43.197Z,14.20
2022-09-07T09:05:38.363Z,15.00
2022-09-07T09:08:41.511Z,13.10
2022-09-07T09:11:22.083Z,14.40
2022-09-07T09:14:15.427Z,13.60
2022-09-07T09:16:50.099Z,15.30
2022-09-07T09:19:36.991Z,15.40
2022-09-07T09:22:16.014Z,16.30
2022-09-07T09:24:53.530Z,16.80
2022-09-07T09:27:21.506Z,25.90
2022-09-07T09:29:49.674Z,19.80
2022-09-07T09:32:41.538Z,18.20
2022-09-07T09:35:19.919Z,15.90
2022-09-07T09:37:48.155Z,15.20
2022-09-07T09:40:30.429Z,16.70
2022-09-07T09:43:08.081Z,16.60
2022-09-07T09:48:42.314Z,16.10
2022-09-07T09:54:17.191Z,16.80
2022-09-07T09:56:47.733Z,17.70
2022-09-07T10:05:34.616Z,16.10
2022-09-07T10:08:06.531Z,16.60
2022-09-07T10:10:34.984Z,18.30
2022-09-07T10:13:03.313Z,16.40
2022-09-07T10:15:41.277Z,16.30
2022-09-07T10:18:21.659Z,15.70
2022-09-07T10:20:49.772Z,15.60
2022-09-07T10:23:24.613Z,16.40
2022-09-07T10:25:52.826Z,16.50
2022-09-07T10:28:24.843Z,16.30
2022-09-07T10:31:14.554Z,17.30
2022-09-07T10:37:06.943Z,14.40
2022-09-07T10:39:43.945Z,13.30
2022-09-07T10:42:21.279Z,13.10
2022-09-07T10:45:00.862Z,13.80
2022-09-07T10:47:43.735Z,11.40
2022-09-07T10:50:24.816Z,8.50
2022-09-07T10:53:40.851Z,11.20
2022-09-07T10:56:26.924Z,11.40
2022-09-07T10:59:02.949Z,9.80
2022-09-07T11:01:54.698Z,11.10
2022-09-07T11:04:53.119Z,9.10
2022-09-07T11:07:52.894Z,9.50
2022-09-07T11:10:32.951Z,9.20
2022-09-07T11:13:05.825Z,7.90
2022-09-07T11:15:44.349Z,7.00
2022-09-07T11:18:24.019Z,7.40
2022-09-07T11:20:56.863Z,6.80
2022-09-07T11:23:43.071Z,6.80
2022-09-07T11:26:41.217Z,6.40
2022-09-07T11:29:32.397Z,6.70
2022-09-07T11:32:18.420Z,6.00
2022-09-07T11:34:55.571Z,6.20
2022-09-07T11:37:27.145Z,5.70
2022-09-07T11:40:17.737Z,5.70
2022-09-07T11:42:56.182Z,5.10
2022-09-07T11:45:35.191Z,5.50
2022-09-07T11:48:30.723Z,5.70
2022-09-07T11:51:19.883Z,5.00
2022-09-07T11:53:55.357Z,4.30
2022-09-07T11:56:38.678Z,4.20
2022-09-07T11:59:19.511Z,4.20
2022-09-07T12:01:59.730Z,3.90
2022-09-07T12:05:09.583Z,4.90
2022-09-07T12:07:38.051Z,4.30
2022-09-07T12:10:27.806Z,4.60
2022-09-07T12:13:20.405Z,4.20
2022-09-07T12:16:07.912Z,3.90
2022-09-07T12:18:54.634Z,3.90
2022-09-07T12:21:53.959Z,4.20
2022-09-07T12:24:43.039Z,3.80
2022-09-07T12:27:20.063Z,3.80
2022-09-07T12:29:50.323Z,3.90
2022-09-07T12:32:58.152Z,3.90
2022-09-07T12:35:27.010Z,3.70
2022-09-07T12:37:56.995Z,3.70
2022-09-07T12:40:28.111Z,3.40
2022-09-07T12:43:14.543Z,3.30
2022-09-07T12:45:42.618Z,3.10
2022-09-07T12:48:16.448Z,3.30
2022-09-07T12:51:01.247Z,3.10
2022-09-07T12:53:57.706Z,2.90
2022-09-07T13:00:25.927Z,3.10
2022-09-07T13:06:18.144Z,2.40
2022-09-07T13:08:54.350Z,2.80
2022-09-07T13:11:34.417Z,2.60
2022-09-07T13:14:15.830Z,3.00
2022-09-07T13:19:46.363Z,3.00
2022-09-07T13:22:38.510Z,3.00
2022-09-07T13:25:19.385Z,3.30
2022-09-07T13:27:58.675Z,3.00
2022-09-07T13:30:57.416Z,2.60
2022-09-07T13:33:26.270Z,3.00
2022-09-07T13:36:00.341Z,3.20
2022-09-07T13:38:31.253Z,4.40
2022-09-07T13:41:34.685Z,2.90
2022-09-07T13:44:04.403Z,3.30
2022-09-07T13:46:53.473Z,3.50
2022-09-07T13:50:02.634Z,3.20
2022-09-07T13:53:07.454Z,3.50
2022-09-07T13:56:33.119Z,3.90
2022-09-07T13:59:18.228Z,4.00
2022-09-07T14:01:48.143Z,3.50
2022-09-07T14:04:27.054Z,3.80
2022-09-07T14:07:23.255Z,3.40
2022-09-07T14:10:21.507Z,3.90
2022-09-07T14:13:05.188Z,3.60
2022-09-07T14:15:33.810Z,3.10
2022-09-07T14:18:15.202Z,3.20
2022-09-07T14:20:52.666Z,3.60
2022-09-07T14:23:32.677Z,3.40
2022-09-07T14:26:19.403Z,3.00
2022-09-07T14:28:51.325Z,3.40
2022-09-07T14:31:21.386Z,3.00
2022-09-07T14:33:59.401Z,3.50
2022-09-07T14:36:44.611Z,3.90
2022-09-07T14:39:17.694Z,4.20
2022-09-07T14:41:46.780Z,4.10
2022-09-07T14:44:38.724Z,3.90
2022-09-07T14:47:21.759Z,4.30
2022-09-07T14:49:55.953Z,4.00
2022-09-07T14:52:43.380Z,4.00
2022-09-07T14:55:29.331Z,4.60
2022-09-07T14:58:11.534Z,4.00
2022-09-07T15:04:02.977Z,3.80
2022-09-07T15:09:37.220Z,4.30
2022-09-07T15:12:29.736Z,4.40
2022-09-07T15:15:21.963Z,4.20
2022-09-07T15:17:52.691Z,4.70
2022-09-07T15:20:37.870Z,4.70
2022-09-07T15:23:10.815Z,5.00
2022-09-07T15:25:43.273Z,5.30
2022-09-07T15:34:20.503Z,4.20
2022-09-07T15:36:52.244Z,4.30
2022-09-07T15:39:27.782Z,4.70
2022-09-07T15:41:57.207Z,4.30
2022-09-07T15:44:28.041Z,4.40
2022-09-07T15:49:50.598Z,4.20
2022-09-07T15:52:19.670Z,5.20
2022-09-07T15:54:47.918Z,4.60
2022-09-07T16:00:06.147Z,5.00
2022-09-07T16:05:31.170Z,5.10
2022-09-07T16:10:53.892Z,5.30
2022-09-07T16:13:24.458Z,4.90
2022-09-07T16:15:52.983Z,5.30
2022-09-07T16:18:21.109Z,5.40
2022-09-07T16:20:52.667Z,5.00
2022-09-07T16:23:21.287Z,5.50
2022-09-07T16:25:58.673Z,6.50
2022-09-07T16:28:27.927Z,6.70
2022-09-07T16:30:56.600Z,5.80
2022-09-07T16:33:33.078Z,7.40
2022-09-07T16:36:13.173Z,6.30
2022-09-07T16:38:46.006Z,6.60
2022-09-07T16:41:17.293Z,7.40
2022-09-07T16:43:46.099Z,7.40
2022-09-07T16:46:17.433Z,7.10
2022-09-07T16:48:45.830Z,6.80
2022-09-07T16:51:16.806Z,6.90
2022-09-07T16:53:45.067Z,7.40
2022-09-07T16:56:17.162Z,7.50
2022-09-07T16:58:51.561Z,7.40
2022-09-07T17:01:23.020Z,7.60
2022-09-07T17:03:51.754Z,7.60
2022-09-07T17:06:22.648Z,7.80
2022-09-07T17:08:52.608Z,8.80
2022-09-07T17:11:26.101Z,8.10
2022-09-07T17:13:57.267Z,7.70
2022-09-07T17:16:34.851Z,7.50
2022-09-07T17:21:55.453Z,7.70
2022-09-07T17:24:25.914Z,8.40
2022-09-07T17:26:54.109Z,8.00
2022-09-07T17:29:22.577Z,7.30
2022-09-07T17:34:39.134Z,7.80
2022-09-07T17:37:08.350Z,9.20
2022-09-07T17:39:38.913Z,8.10
2022-09-07T17:42:07.618Z,8.00
2022-09-07T17:44:38.287Z,9.10
2022-09-07T17:47:06.980Z,9.00
2022-09-07T17:49:35.089Z,9.00
2022-09-07T17:52:03.350Z,10.10
2022-09-07T17:54:32.206Z,9.70
2022-09-07T17:57:00.512Z,9.60
2022-09-07T18:02:17.087Z,9.60
2022-09-07T18:04:45.215Z,9.60
2022-09-07T18:07:13.600Z,10.30
2022-09-07T18:09:42.100Z,10.20
2022-09-07T18:12:10.298Z,9.70
2022-09-07T18:14:38.487Z,9.20
2022-09-07T18:17:06.575Z,9.40
2022-09-07T18:19:34.635Z,9.90
2022-09-07T18:22:04.091Z,10.60
2022-09-07T18:24:32.326Z,9.50
2022-09-07T18:27:00.407Z,9.60
2022-09-07T18:29:32.841Z,9.40
2022-09-07T18:32:07.990Z,8.90
2022-09-07T18:34:41.517Z,9.60
2022-09-07T18:37:12.440Z,9.90
2022-09-07T18:39:41.198Z,10.70
2022-09-07T18:42:10.164Z,11.10
2022-09-07T18:47:29.486Z,11.40
2022-09-07T18:49:58.749Z,12.00
2022-09-07T18:55:16.698Z,12.70
2022-09-07T18:57:45.040Z,13.10
2022-09-07T19:00:14.261Z,12.90
2022-09-07T19:02:42.393Z,13.90
2022-09-07T19:07:59.863Z,13.80
2022-09-07T19:10:28.387Z,15.20
2022-09-07T19:12:56.698Z,15.00
2022-09-07T19:15:25.441Z,15.10
2022-09-07T19:17:53.779Z,14.60
2022-09-07T19:20:21.864Z,15.70
2022-09-07T19:22:49.862Z,16.30
2022-09-07T19:25:19.478Z,16.90
2022-09-07T19:27:47.781Z,16.10
2022-09-07T19:30:17.474Z,16.10
2022-09-07T19:32:45.598Z,16.40
2022-09-07T19:35:13.692Z,16.80
2022-09-07T19:37:41.778Z,17.50
2022-09-07T19:40:14.709Z,21.80
2022-09-07T19:42:45.372Z,22.20
2022-09-07T19:45:15.198Z,22.60
2022-09-07T19:47:43.443Z,21.90
2022-09-07T19:50:11.475Z,24.40
2022-09-07T19:52:39.637Z,24.50
2022-09-07T19:55:08.356Z,23.00
2022-09-07T19:57:36.519Z,17.60
2022-09-07T20:00:07.314Z,18.50
2022-09-07T20:02:40.495Z,18.90
2022-09-07T20:05:09.002Z,19.90
2022-09-07T20:07:37.168Z,16.30
2022-09-07T20:10:05.997Z,16.70
2022-09-07T20:12:34.468Z,19.90
2022-09-07T20:15:02.664Z,19.10
2022-09-07T20:17:35.165Z,17.30
2022-09-07T20:20:05.217Z,17.70
2022-09-07T20:22:33.227Z,19.80
2022-09-07T20:28:27.677Z,19.80
2022-09-07T20:30:56.530Z,19.80
2022-09-07T20:33:25.068Z,21.10
2022-09-07T20:35:53.423Z,22.10
2022-09-07T20:38:21.516Z,22.20
2022-09-07T20:40:58.579Z,21.40
2022-09-07T20:43:27.825Z,22.10
2022-09-07T20:45:57.983Z,20.70
2022-09-07T20:48:27.560Z,21.00
2022-09-07T20:51:00.995Z,20.80
2022-09-07T20:53:29.092Z,19.90
2022-09-07T20:56:10.306Z,20.30
2022-09-07T20:58:43.491Z,21.40
2022-09-07T21:01:14.205Z,22.60
2022-09-07T21:03:49.370Z,21.50
2022-09-07T21:06:18.869Z,21.10
2022-09-07T21:08:48.774Z,21.30
2022-09-07T21:11:20.186Z,20.10
2022-09-07T21:13:55.398Z,20.80
2022-09-07T21:16:23.657Z,20.70
2022-09-07T21:23:41.590Z,19.40
2022-09-07T21:26:10.757Z,20.00
2022-09-07T21:28:38.812Z,18.50
2022-09-07T21:31:09.208Z,18.70
2022-09-07T21:33:37.816Z,19.80
2022-09-07T21:36:09.568Z,21.00
2022-09-07T21:38:41.998Z,19.50
2022-09-07T21:41:13.065Z,19.80
2022-09-07T21:43:44.134Z,19.20
2022-09-07T21:46:19.167Z,19.10
2022-09-07T21:48:47.727Z,21.90
2022-09-07T21:51:18.990Z,20.60
2022-09-07T21:53:55.403Z,21.50
2022-09-07T21:56:27.651Z,21.80
2022-09-07T21:59:02.690Z,22.50
2022-09-07T22:01:34.623Z,21.30
2022-09-07T22:04:07.228Z,22.20
2022-09-07T22:06:45.886Z,22.80
2022-09-07T22:09:25.451Z,21.90
2022-09-07T22:11:53.754Z,22.50
2022-09-07T22:14:23.881Z,21.60
2022-09-07T22:16:52.280Z,22.30
2022-09-07T22:19:23.132Z,22.00
2022-09-07T22:21:52.041Z,22.70
2022-09-07T22:24:20.008Z,22.00
2022-09-07T22:26:47.986Z,23.90
2022-09-07T22:29:16.330Z,23.10
2022-09-07T22:31:45.847Z,23.20
2022-09-07T22:34:14.271Z,23.90
2022-09-07T22:36:45.971Z,23.20
2022-09-07T22:39:18.061Z,24.20
2022-09-07T22:41:49.176Z,24.70
2022-09-07T22:44:18.683Z,24.90
2022-09-07T22:46:48.177Z,24.00
2022-09-07T22:49:17.155Z,25.50
2022-09-07T22:51:45.952Z,24.10
2022-09-07T22:54:14.770Z,24.40
2022-09-07T22:56:43.170Z,24.90
2022-09-07T22:59:13.276Z,24.50
2022-09-07T23:01:41.967Z,25.70
2022-09-07T23:04:11.430Z,27.90
2022-09-07T23:06:42.712Z,27.10
2022-09-07T23:09:14.084Z,25.70
2022-09-07T23:11:42.427Z,25.50
2022-09-07T23:14:25.194Z,24.70
2022-09-07T23:16:53.446Z,24.80
2022-09-07T23:19:21.629Z,26.00
2022-09-07T23:21:49.937Z,27.70
2022-09-07T23:24:19.398Z,28.70
2022-09-07T23:26:48.223Z,25.20
2022-09-07T23:29:16.793Z,25.10
2022-09-07T23:31:46.792Z,24.40
2022-09-07T23:34:15.052Z,24.40
2022-09-07T23:36:43.391Z,24.80
2022-09-07T23:39:12.213Z,23.80
2022-09-07T23:41:40.618Z,23.50
2022-09-07T23:44:09.479Z,23.00
2022-09-07T23:46:37.539Z,23.80
2022-09-07T23:49:05.845Z,22.90
2022-09-07T23:51:33.832Z,23.80
2022-09-07T23:54:01.933Z,22.90
2022-09-07T23:56:32.402Z,23.90
2022-09-07T23:59:00.796Z,23.20
